sensor_id;sensor_type;location;lat;lon;timestamp;pressure;altitude;pressure_sealevel;temperature;humidity
23574;BME280;11965;53.640;10.050;2023-02-18T00:01:33;101450.47;;;6.39;96.58
23574;BME280;11965;53.640;10.050;2023-02-18T00:04:00;101444.16;;;6.47;96.91
23574;BME280;11965;53.640;10.050;2023-02-18T00:06:32;101430.59;;;6.36;96.59
23574;BME280;11965;53.640;10.050;2023-02-18T00:09:00;101446.47;;;6.24;97.83
23574;BME280;11965;53.640;10.050;2023-02-18T00:11:32;101441.19;;;6.40;96.57
23574;BME280;11965;53.640;10.050;2023-02-18T00:14:01;101443.31;;;6.47;95.75
23574;BME280;11965;53.640;10.050;2023-02-18T00:16:29;101448.97;;;6.45;96.86
23574;BME280;11965;53.640;10.050;2023-02-18T00:18:58;101443.06;;;6.40;96.38
23574;BME280;11965;53.640;10.050;2023-02-18T00:21:26;101446.31;;;6.53;96.59
23574;BME280;11965;53.640;10.050;2023-02-18T00:23:54;101441.19;;;6.40;96.66
23574;BME280;11965;53.640;10.050;2023-02-18T00:26:21;101449.97;;;6.44;97.22
23574;BME280;11965;53.640;10.050;2023-02-18T00:28:50;101453.88;;;6.51;97.07
23574;BME280;11965;53.640;10.050;2023-02-18T00:31:22;101457.28;;;6.35;97.99
23574;BME280;11965;53.640;10.050;2023-02-18T00:33:49;101454.88;;;6.23;99.11
23574;BME280;11965;53.640;10.050;2023-02-18T00:36:18;101457.72;;;6.31;98.90
23574;BME280;11965;53.640;10.050;2023-02-18T00:38:47;101448.25;;;6.15;100.00
23574;BME280;11965;53.640;10.050;2023-02-18T00:41:15;101450.59;;;6.10;100.00
23574;BME280;11965;53.640;10.050;2023-02-18T00:43:42;101459.28;;;6.15;100.00
23574;BME280;11965;53.640;10.050;2023-02-18T00:46:11;101462.03;;;6.06;100.00
23574;BME280;11965;53.640;10.050;2023-02-18T00:48:38;101457.81;;;6.11;100.00
23574;BME280;11965;53.640;10.050;2023-02-18T00:51:06;101454.63;;;6.16;99.93
23574;BME280;11965;53.640;10.050;2023-02-18T00:53:34;101467.34;;;6.17;100.00
23574;BME280;11965;53.640;10.050;2023-02-18T00:56:01;101469.56;;;6.13;99.84
23574;BME280;11965;53.640;10.050;2023-02-18T00:58:27;101475.47;;;6.18;100.00
23574;BME280;11965;53.640;10.050;2023-02-18T01:00:55;101474.41;;;6.29;99.58
23574;BME280;11965;53.640;10.050;2023-02-18T01:03:23;101479.19;;;6.27;99.45
23574;BME280;11965;53.640;10.050;2023-02-18T01:05:51;101473.38;;;6.30;98.44
23574;BME280;11965;53.640;10.050;2023-02-18T01:08:20;101477.88;;;6.31;98.32
23574;BME280;11965;53.640;10.050;2023-02-18T01:10:53;101479.34;;;6.26;98.52
23574;BME280;11965;53.640;10.050;2023-02-18T01:13:21;101480.13;;;6.18;99.49
23574;BME280;11965;53.640;10.050;2023-02-18T01:15:48;101481.66;;;6.30;98.52
23574;BME280;11965;53.640;10.050;2023-02-18T01:18:15;101482.28;;;6.14;98.72
23574;BME280;11965;53.640;10.050;2023-02-18T01:20:44;101487.16;;;6.30;98.59
23574;BME280;11965;53.640;10.050;2023-02-18T01:23:12;101491.72;;;6.12;99.43
23574;BME280;11965;53.640;10.050;2023-02-18T01:25:40;101483.50;;;6.02;99.72
23574;BME280;11965;53.640;10.050;2023-02-18T01:28:09;101489.13;;;5.91;100.00
23574;BME280;11965;53.640;10.050;2023-02-18T01:30:37;101477.00;;;5.84;100.00
23574;BME280;11965;53.640;10.050;2023-02-18T01:33:05;101485.69;;;5.89;100.00
23574;BME280;11965;53.640;10.050;2023-02-18T01:35:33;101489.41;;;5.88;100.00
23574;BME280;11965;53.640;10.050;2023-02-18T01:38:01;101496.69;;;5.89;99.91
23574;BME280;11965;53.640;10.050;2023-02-18T01:40:29;101496.97;;;5.86;100.00
23574;BME280;11965;53.640;10.050;2023-02-18T01:42:56;101487.84;;;5.85;100.00
23574;BME280;11965;53.640;10.050;2023-02-18T01:46:02;101491.91;;;5.71;100.00
23574;BME280;11965;53.640;10.050;2023-02-18T01:48:35;101486.53;;;5.80;100.00
23574;BME280;11965;53.640;10.050;2023-02-18T01:51:09;101482.50;;;5.74;100.00
23574;BME280;11965;53.640;10.050;2023-02-18T01:53:44;101479.91;;;5.72;100.00
23574;BME280;11965;53.640;10.050;2023-02-18T01:56:19;101480.19;;;5.69;100.00
23574;BME280;11965;53.640;10.050;2023-02-18T01:58:52;101478.03;;;5.63;100.00
23574;BME280;11965;53.640;10.050;2023-02-18T02:01:20;101473.88;;;5.59;100.00
23574;BME280;11965;53.640;10.050;2023-02-18T02:03:47;101474.72;;;5.50;100.00
23574;BME280;11965;53.640;10.050;2023-02-18T02:06:18;101469.47;;;5.76;100.00
23574;BME280;11965;53.640;10.050;2023-02-18T02:08:54;101468.06;;;5.62;100.00
23574;BME280;11965;53.640;10.050;2023-02-18T02:11:33;101458.78;;;5.63;100.00
23574;BME280;11965;53.640;10.050;2023-02-18T02:14:21;101460.38;;;5.66;100.00
23574;BME280;11965;53.640;10.050;2023-02-18T02:17:02;101463.81;;;5.78;100.00
23574;BME280;11965;53.640;10.050;2023-02-18T02:20:07;101458.19;;;5.69;100.00
23574;BME280;11965;53.640;10.050;2023-02-18T02:23:07;101460.97;;;5.60;100.00
23574;BME280;11965;53.640;10.050;2023-02-18T02:26:08;101453.31;;;5.53;100.00
23574;BME280;11965;53.640;10.050;2023-02-18T02:29:00;101445.22;;;5.42;100.00
23574;BME280;11965;53.640;10.050;2023-02-18T02:34:44;101447.09;;;5.42;100.00
23574;BME280;11965;53.640;10.050;2023-02-18T02:37:21;101446.81;;;5.45;100.00
23574;BME280;11965;53.640;10.050;2023-02-18T02:40:00;101445.94;;;5.54;100.00
23574;BME280;11965;53.640;10.050;2023-02-18T02:42:45;101446.97;;;5.43;100.00
23574;BME280;11965;53.640;10.050;2023-02-18T02:45:25;101442.03;;;5.57;100.00
23574;BME280;11965;53.640;10.050;2023-02-18T02:48:01;101436.66;;;5.65;100.00
23574;BME280;11965;53.640;10.050;2023-02-18T02:50:39;101447.66;;;5.55;100.00
23574;BME280;11965;53.640;10.050;2023-02-18T02:53:15;101435.78;;;5.54;100.00
23574;BME280;11965;53.640;10.050;2023-02-18T02:55:45;101439.81;;;5.70;100.00
23574;BME280;11965;53.640;10.050;2023-02-18T02:58:14;101429.19;;;5.85;100.00
23574;BME280;11965;53.640;10.050;2023-02-18T03:00:56;101427.91;;;5.79;100.00
23574;BME280;11965;53.640;10.050;2023-02-18T03:03:48;101426.31;;;5.86;100.00
23574;BME280;11965;53.640;10.050;2023-02-18T03:06:42;101420.53;;;5.80;100.00
23574;BME280;11965;53.640;10.050;2023-02-18T03:09:19;101416.00;;;5.88;100.00
23574;BME280;11965;53.640;10.050;2023-02-18T03:11:57;101424.72;;;5.93;100.00
23574;BME280;11965;53.640;10.050;2023-02-18T03:14:42;101423.16;;;5.81;100.00
23574;BME280;11965;53.640;10.050;2023-02-18T03:17:19;101419.94;;;5.95;100.00
23574;BME280;11965;53.640;10.050;2023-02-18T03:19:53;101420.50;;;5.89;100.00
23574;BME280;11965;53.640;10.050;2023-02-18T03:22:26;101424.72;;;5.84;100.00
23574;BME280;11965;53.640;10.050;2023-02-18T03:24:57;101435.88;;;5.82;100.00
23574;BME280;11965;53.640;10.050;2023-02-18T03:27:30;101424.13;;;6.00;100.00
23574;BME280;11965;53.640;10.050;2023-02-18T03:30:04;101423.09;;;5.91;100.00
23574;BME280;11965;53.640;10.050;2023-02-18T03:32:33;101412.38;;;5.88;100.00
23574;BME280;11965;53.640;10.050;2023-02-18T03:35:07;101424.81;;;6.02;100.00
23574;BME280;11965;53.640;10.050;2023-02-18T03:37:41;101429.13;;;6.14;100.00
23574;BME280;11965;53.640;10.050;2023-02-18T03:40:10;101418.88;;;6.06;100.00
23574;BME280;11965;53.640;10.050;2023-02-18T03:42:37;101418.75;;;6.08;99.62
23574;BME280;11965;53.640;10.050;2023-02-18T03:45:05;101433.56;;;6.25;99.08
23574;BME280;11965;53.640;10.050;2023-02-18T03:47:33;101422.16;;;6.19;97.33
23574;BME280;11965;53.640;10.050;2023-02-18T03:50:00;101418.31;;;6.03;98.80
23574;BME280;11965;53.640;10.050;2023-02-18T03:52:27;101422.44;;;6.16;97.77
23574;BME280;11965;53.640;10.050;2023-02-18T03:54:55;101399.91;;;6.03;98.93
23574;BME280;11965;53.640;10.050;2023-02-18T03:57:22;101425.97;;;6.09;98.50
23574;BME280;11965;53.640;10.050;2023-02-18T03:59:49;101412.72;;;6.22;98.60
23574;BME280;11965;53.640;10.050;2023-02-18T04:02:15;101421.31;;;6.09;99.69
23574;BME280;11965;53.640;10.050;2023-02-18T04:04:42;101420.34;;;6.28;98.51
23574;BME280;11965;53.640;10.050;2023-02-18T04:07:09;101429.38;;;6.20;97.81
23574;BME280;11965;53.640;10.050;2023-02-18T04:09:36;101422.59;;;6.15;99.39
23574;BME280;11965;53.640;10.050;2023-02-18T04:12:04;101424.03;;;6.19;98.57
23574;BME280;11965;53.640;10.050;2023-02-18T04:14:31;101423.63;;;6.14;99.42
23574;BME280;11965;53.640;10.050;2023-02-18T04:16:58;101424.59;;;6.23;100.00
23574;BME280;11965;53.640;10.050;2023-02-18T04:19:26;101417.50;;;6.20;100.00
23574;BME280;11965;53.640;10.050;2023-02-18T04:21:53;101414.66;;;6.12;100.00
23574;BME280;11965;53.640;10.050;2023-02-18T04:24:19;101408.84;;;6.15;100.00
23574;BME280;11965;53.640;10.050;2023-02-18T04:26:46;101394.53;;;6.02;100.00
23574;BME280;11965;53.640;10.050;2023-02-18T04:29:14;101389.94;;;5.92;100.00
23574;BME280;11965;53.640;10.050;2023-02-18T04:31:41;101389.53;;;5.87;100.00
23574;BME280;11965;53.640;10.050;2023-02-18T04:34:08;101385.25;;;5.75;100.00
23574;BME280;11965;53.640;10.050;2023-02-18T04:36:35;101383.59;;;5.82;100.00
23574;BME280;11965;53.640;10.050;2023-02-18T04:39:02;101371.72;;;5.82;100.00
23574;BME280;11965;53.640;10.050;2023-02-18T04:41:29;101375.97;;;5.66;100.00
23574;BME280;11965;53.640;10.050;2023-02-18T04:43:56;101368.78;;;5.56;100.00
23574;BME280;11965;53.640;10.050;2023-02-18T04:46:25;101364.63;;;5.51;100.00
23574;BME280;11965;53.640;10.050;2023-02-18T04:48:52;101367.69;;;5.39;100.00
23574;BME280;11965;53.640;10.050;2023-02-18T04:51:19;101372.63;;;5.35;100.00
23574;BME280;11965;53.640;10.050;2023-02-18T04:53:45;101372.19;;;5.30;100.00
23574;BME280;11965;53.640;10.050;2023-02-18T04:56:12;101383.91;;;5.32;100.00
23574;BME280;11965;53.640;10.050;2023-02-18T04:58:39;101384.59;;;5.44;100.00
23574;BME280;11965;53.640;10.050;2023-02-18T05:01:06;101365.59;;;5.50;100.00
23574;BME280;11965;53.640;10.050;2023-02-18T05:03:34;101384.44;;;5.45;100.00
23574;BME280;11965;53.640;10.050;2023-02-18T05:06:01;101372.00;;;5.51;100.00
23574;BME280;11965;53.640;10.050;2023-02-18T05:08:28;101367.03;;;5.64;100.00
23574;BME280;11965;53.640;10.050;2023-02-18T05:10:55;101365.69;;;5.68;100.00
23574;BME280;11965;53.640;10.050;2023-02-18T05:13:22;101363.38;;;5.73;100.00
23574;BME280;11965;53.640;10.050;2023-02-18T05:15:52;101362.66;;;5.71;100.00
23574;BME280;11965;53.640;10.050;2023-02-18T05:18:18;101363.78;;;5.79;100.00
23574;BME280;11965;53.640;10.050;2023-02-18T05:20:47;101364.84;;;5.68;100.00
23574;BME280;11965;53.640;10.050;2023-02-18T05:23:13;101362.94;;;5.68;100.00
23574;BME280;11965;53.640;10.050;2023-02-18T05:25:40;101361.38;;;5.66;100.00
23574;BME280;11965;53.640;10.050;2023-02-18T05:28:07;101357.75;;;5.65;100.00
23574;BME280;11965;53.640;10.050;2023-02-18T05:30:34;101356.41;;;5.69;100.00
23574;BME280;11965;53.640;10.050;2023-02-18T05:33:01;101350.22;;;5.67;100.00
23574;BME280;11965;53.640;10.050;2023-02-18T05:35:28;101345.91;;;5.55;100.00
23574;BME280;11965;53.640;10.050;2023-02-18T05:37:56;101340.44;;;5.45;100.00
23574;BME280;11965;53.640;10.050;2023-02-18T05:40:23;101346.25;;;5.42;100.00
23574;BME280;11965;53.640;10.050;2023-02-18T05:42:50;101339.03;;;5.31;100.00
23574;BME280;11965;53.640;10.050;2023-02-18T05:45:17;101335.44;;;5.31;100.00
23574;BME280;11965;53.640;10.050;2023-02-18T05:47:43;101329.50;;;5.36;100.00
23574;BME280;11965;53.640;10.050;2023-02-18T05:50:10;101326.03;;;5.34;100.00
23574;BME280;11965;53.640;10.050;2023-02-18T05:52:37;101322.28;;;5.25;100.00
23574;BME280;11965;53.640;10.050;2023-02-18T05:55:06;101316.78;;;5.25;100.00
23574;BME280;11965;53.640;10.050;2023-02-18T05:57:33;101319.25;;;5.28;100.00
23574;BME280;11965;53.640;10.050;2023-02-18T06:00:00;101331.81;;;5.21;100.00
23574;BME280;11965;53.640;10.050;2023-02-18T06:02:26;101333.59;;;5.22;100.00
23574;BME280;11965;53.640;10.050;2023-02-18T06:04:53;101325.59;;;5.28;100.00
23574;BME280;11965;53.640;10.050;2023-02-18T06:07:20;101319.97;;;5.30;100.00
23574;BME280;11965;53.640;10.050;2023-02-18T06:09:47;101307.09;;;5.21;100.00
23574;BME280;11965;53.640;10.050;2023-02-18T06:12:16;101305.50;;;5.28;100.00
23574;BME280;11965;53.640;10.050;2023-02-18T06:14:43;101312.75;;;5.19;100.00
23574;BME280;11965;53.640;10.050;2023-02-18T06:17:11;101308.25;;;5.18;100.00
23574;BME280;11965;53.640;10.050;2023-02-18T06:19:38;101296.56;;;5.16;100.00
23574;BME280;11965;53.640;10.050;2023-02-18T06:22:06;101284.56;;;5.07;100.00
23574;BME280;11965;53.640;10.050;2023-02-18T06:24:33;101267.50;;;5.14;100.00
23574;BME280;11965;53.640;10.050;2023-02-18T06:27:00;101265.38;;;4.98;100.00
23574;BME280;11965;53.640;10.050;2023-02-18T06:29:29;101268.13;;;4.98;100.00
23574;BME280;11965;53.640;10.050;2023-02-18T06:31:55;101261.34;;;4.92;100.00
23574;BME280;11965;53.640;10.050;2023-02-18T06:34:22;101261.72;;;5.07;100.00
23574;BME280;11965;53.640;10.050;2023-02-18T06:36:49;101261.91;;;4.96;100.00
23574;BME280;11965;53.640;10.050;2023-02-18T06:39:16;101266.66;;;5.13;100.00
23574;BME280;11965;53.640;10.050;2023-02-18T06:41:43;101265.50;;;4.96;100.00
23574;BME280;11965;53.640;10.050;2023-02-18T06:44:10;101266.50;;;5.05;100.00
23574;BME280;11965;53.640;10.050;2023-02-18T06:46:41;101258.84;;;4.99;100.00
23574;BME280;11965;53.640;10.050;2023-02-18T06:49:08;101244.69;;;4.94;100.00
23574;BME280;11965;53.640;10.050;2023-02-18T06:51:34;101234.97;;;5.09;100.00
23574;BME280;11965;53.640;10.050;2023-02-18T06:54:01;101228.44;;;5.10;100.00
23574;BME280;11965;53.640;10.050;2023-02-18T06:56:28;101236.25;;;5.15;100.00
23574;BME280;11965;53.640;10.050;2023-02-18T06:58:55;101233.81;;;5.12;100.00
23574;BME280;11965;53.640;10.050;2023-02-18T07:01:22;101226.44;;;5.12;100.00
23574;BME280;11965;53.640;10.050;2023-02-18T07:03:50;101216.59;;;5.09;100.00
23574;BME280;11965;53.640;10.050;2023-02-18T07:06:17;101202.13;;;5.17;100.00
23574;BME280;11965;53.640;10.050;2023-02-18T07:08:44;101190.75;;;5.02;100.00
23574;BME280;11965;53.640;10.050;2023-02-18T07:11:11;101200.72;;;5.03;100.00
23574;BME280;11965;53.640;10.050;2023-02-18T07:13:37;101197.53;;;5.08;100.00
23574;BME280;11965;53.640;10.050;2023-02-18T07:16:04;101198.53;;;5.07;100.00
23574;BME280;11965;53.640;10.050;2023-02-18T07:18:31;101201.38;;;5.25;100.00
23574;BME280;11965;53.640;10.050;2023-02-18T07:21:00;101203.81;;;5.28;100.00
23574;BME280;11965;53.640;10.050;2023-02-18T07:23:26;101215.00;;;5.17;100.00
23574;BME280;11965;53.640;10.050;2023-02-18T07:26:02;101200.13;;;5.09;100.00
23574;BME280;11965;53.640;10.050;2023-02-18T07:28:29;101189.22;;;5.18;100.00
23574;BME280;11965;53.640;10.050;2023-02-18T07:30:56;101181.16;;;5.16;100.00
23574;BME280;11965;53.640;10.050;2023-02-18T07:33:23;101149.09;;;5.07;100.00
23574;BME280;11965;53.640;10.050;2023-02-18T07:35:52;101161.44;;;5.21;100.00
23574;BME280;11965;53.640;10.050;2023-02-18T07:38:21;101149.50;;;5.12;100.00
23574;BME280;11965;53.640;10.050;2023-02-18T07:40:48;101135.63;;;5.14;100.00
23574;BME280;11965;53.640;10.050;2023-02-18T07:43:15;101138.81;;;5.09;100.00
23574;BME280;11965;53.640;10.050;2023-02-18T07:45:42;101143.56;;;5.17;100.00
23574;BME280;11965;53.640;10.050;2023-02-18T07:48:09;101137.03;;;5.18;100.00
23574;BME280;11965;53.640;10.050;2023-02-18T07:50:38;101111.00;;;5.22;100.00
23574;BME280;11965;53.640;10.050;2023-02-18T07:53:06;101105.50;;;5.22;100.00
23574;BME280;11965;53.640;10.050;2023-02-18T07:55:35;101101.00;;;5.21;100.00
23574;BME280;11965;53.640;10.050;2023-02-18T07:58:19;101093.63;;;5.21;100.00
23574;BME280;11965;53.640;10.050;2023-02-18T08:00:47;101081.94;;;5.19;100.00
23574;BME280;11965;53.640;10.050;2023-02-18T08:03:15;101063.69;;;5.18;100.00
23574;BME280;11965;53.640;10.050;2023-02-18T08:05:42;101066.69;;;5.25;100.00
23574;BME280;11965;53.640;10.050;2023-02-18T08:08:12;101068.81;;;5.31;100.00
23574;BME280;11965;53.640;10.050;2023-02-18T08:10:41;101063.81;;;5.44;100.00
23574;BME280;11965;53.640;10.050;2023-02-18T08:13:09;101060.84;;;5.38;100.00
23574;BME280;11965;53.640;10.050;2023-02-18T08:15:36;101062.00;;;5.35;100.00
23574;BME280;11965;53.640;10.050;2023-02-18T08:18:05;101044.63;;;5.35;100.00
23574;BME280;11965;53.640;10.050;2023-02-18T08:20:34;101050.84;;;5.37;100.00
23574;BME280;11965;53.640;10.050;2023-02-18T08:23:02;101064.34;;;5.48;100.00
23574;BME280;11965;53.640;10.050;2023-02-18T08:25:29;101059.97;;;5.55;100.00
23574;BME280;11965;53.640;10.050;2023-02-18T08:27:58;101060.28;;;5.52;100.00
23574;BME280;11965;53.640;10.050;2023-02-18T08:30:25;101056.50;;;5.53;100.00
23574;BME280;11965;53.640;10.050;2023-02-18T08:32:52;101059.66;;;5.58;100.00
23574;BME280;11965;53.640;10.050;2023-02-18T08:35:19;101050.69;;;5.56;100.00
23574;BME280;11965;53.640;10.050;2023-02-18T08:37:46;101048.97;;;5.55;100.00
23574;BME280;11965;53.640;10.050;2023-02-18T08:40:13;101042.75;;;5.53;100.00
23574;BME280;11965;53.640;10.050;2023-02-18T08:42:40;101034.91;;;5.40;100.00
23574;BME280;11965;53.640;10.050;2023-02-18T08:45:08;101032.25;;;5.48;100.00
23574;BME280;11965;53.640;10.050;2023-02-18T08:47:35;101022.72;;;5.61;100.00
23574;BME280;11965;53.640;10.050;2023-02-18T08:50:02;101015.03;;;5.64;100.00
23574;BME280;11965;53.640;10.050;2023-02-18T08:52:29;101004.97;;;5.55;100.00
23574;BME280;11965;53.640;10.050;2023-02-18T08:54:56;100995.56;;;5.58;100.00
23574;BME280;11965;53.640;10.050;2023-02-18T08:57:23;100984.78;;;5.64;100.00
23574;BME280;11965;53.640;10.050;2023-02-18T08:59:50;100993.50;;;5.60;100.00
23574;BME280;11965;53.640;10.050;2023-02-18T09:02:18;100986.44;;;5.57;100.00
23574;BME280;11965;53.640;10.050;2023-02-18T09:04:45;100979.44;;;5.63;100.00
23574;BME280;11965;53.640;10.050;2023-02-18T09:07:12;100965.38;;;5.66;100.00
23574;BME280;11965;53.640;10.050;2023-02-18T09:09:39;100960.19;;;5.63;100.00
23574;BME280;11965;53.640;10.050;2023-02-18T09:12:07;100939.13;;;5.71;100.00
23574;BME280;11965;53.640;10.050;2023-02-18T09:14:34;100922.88;;;5.60;100.00
23574;BME280;11965;53.640;10.050;2023-02-18T09:17:00;100912.09;;;5.67;100.00
23574;BME280;11965;53.640;10.050;2023-02-18T09:19:29;100903.09;;;5.57;100.00
23574;BME280;11965;53.640;10.050;2023-02-18T09:21:55;100914.97;;;5.57;100.00
23574;BME280;11965;53.640;10.050;2023-02-18T09:24:22;100902.78;;;5.60;100.00
23574;BME280;11965;53.640;10.050;2023-02-18T09:26:53;100909.66;;;5.64;100.00
23574;BME280;11965;53.640;10.050;2023-02-18T09:29:20;100904.97;;;5.56;100.00
23574;BME280;11965;53.640;10.050;2023-02-18T09:31:47;100905.47;;;5.51;100.00
23574;BME280;11965;53.640;10.050;2023-02-18T09:34:14;100893.44;;;5.52;100.00
23574;BME280;11965;53.640;10.050;2023-02-18T09:36:42;100897.44;;;5.58;100.00
23574;BME280;11965;53.640;10.050;2023-02-18T09:39:09;100884.53;;;5.59;100.00
23574;BME280;11965;53.640;10.050;2023-02-18T09:41:41;100875.09;;;5.61;100.00
23574;BME280;11965;53.640;10.050;2023-02-18T09:44:13;100877.59;;;5.72;100.00
23574;BME280;11965;53.640;10.050;2023-02-18T09:46:48;100876.03;;;5.70;100.00
23574;BME280;11965;53.640;10.050;2023-02-18T09:49:19;100871.88;;;5.66;100.00
23574;BME280;11965;53.640;10.050;2023-02-18T09:51:48;100868.31;;;5.73;100.00
23574;BME280;11965;53.640;10.050;2023-02-18T09:54:18;100858.34;;;5.72;100.00
23574;BME280;11965;53.640;10.050;2023-02-18T09:56:47;100846.31;;;5.73;100.00
23574;BME280;11965;53.640;10.050;2023-02-18T09:59:18;100841.00;;;5.80;100.00
23574;BME280;11965;53.640;10.050;2023-02-18T10:01:48;100824.72;;;5.87;100.00
23574;BME280;11965;53.640;10.050;2023-02-18T10:04:20;100828.19;;;5.89;100.00
23574;BME280;11965;53.640;10.050;2023-02-18T10:06:52;100829.28;;;6.04;100.00
23574;BME280;11965;53.640;10.050;2023-02-18T10:09:21;100804.50;;;5.96;100.00
23574;BME280;11965;53.640;10.050;2023-02-18T10:11:53;100831.75;;;6.07;100.00
23574;BME280;11965;53.640;10.050;2023-02-18T10:14:21;100829.88;;;6.16;100.00
23574;BME280;11965;53.640;10.050;2023-02-18T10:16:51;100819.34;;;6.03;100.00
23574;BME280;11965;53.640;10.050;2023-02-18T10:19:23;100831.78;;;6.15;100.00
23574;BME280;11965;53.640;10.050;2023-02-18T10:21:54;100822.44;;;6.08;100.00
23574;BME280;11965;53.640;10.050;2023-02-18T10:24:27;100797.28;;;5.95;100.00
23574;BME280;11965;53.640;10.050;2023-02-18T10:26:55;100802.78;;;5.95;100.00
23574;BME280;11965;53.640;10.050;2023-02-18T10:29:23;100812.13;;;6.02;100.00
23574;BME280;11965;53.640;10.050;2023-02-18T10:31:55;100807.53;;;6.19;100.00
23574;BME280;11965;53.640;10.050;2023-02-18T10:34:35;100803.88;;;6.10;100.00
23574;BME280;11965;53.640;10.050;2023-02-18T10:37:21;100787.00;;;6.05;100.00
23574;BME280;11965;53.640;10.050;2023-02-18T10:40:05;100789.44;;;6.16;100.00
23574;BME280;11965;53.640;10.050;2023-02-18T10:42:45;100775.31;;;6.03;100.00
23574;BME280;11965;53.640;10.050;2023-02-18T10:45:27;100781.53;;;6.13;100.00
23574;BME280;11965;53.640;10.050;2023-02-18T10:48:11;100777.75;;;6.23;100.00
23574;BME280;11965;53.640;10.050;2023-02-18T10:50:45;100776.25;;;6.36;100.00
23574;BME280;11965;53.640;10.050;2023-02-18T10:53:21;100774.03;;;6.40;100.00
23574;BME280;11965;53.640;10.050;2023-02-18T10:55:52;100773.50;;;6.45;100.00
23574;BME280;11965;53.640;10.050;2023-02-18T10:58:31;100761.47;;;6.37;100.00
23574;BME280;11965;53.640;10.050;2023-02-18T11:01:01;100757.53;;;6.48;100.00
23574;BME280;11965;53.640;10.050;2023-02-18T11:03:41;100750.94;;;6.33;100.00
23574;BME280;11965;53.640;10.050;2023-02-18T11:06:20;100741.34;;;6.29;100.00
23574;BME280;11965;53.640;10.050;2023-02-18T11:08:53;100726.00;;;6.26;100.00
23574;BME280;11965;53.640;10.050;2023-02-18T11:11:24;100730.47;;;6.27;100.00
23574;BME280;11965;53.640;10.050;2023-02-18T11:13:57;100727.56;;;6.29;100.00
23574;BME280;11965;53.640;10.050;2023-02-18T11:16:37;100713.97;;;6.27;100.00
23574;BME280;11965;53.640;10.050;2023-02-18T11:19:04;100715.66;;;6.20;100.00
23574;BME280;11965;53.640;10.050;2023-02-18T11:21:35;100709.16;;;6.21;100.00
23574;BME280;11965;53.640;10.050;2023-02-18T11:24:09;100699.69;;;6.32;100.00
23574;BME280;11965;53.640;10.050;2023-02-18T11:26:38;100678.53;;;6.40;100.00
23574;BME280;11965;53.640;10.050;2023-02-18T11:29:12;100686.78;;;6.57;100.00
23574;BME280;11965;53.640;10.050;2023-02-18T11:31:44;100681.09;;;6.83;100.00
23574;BME280;11965;53.640;10.050;2023-02-18T11:34:19;100684.22;;;6.72;100.00
23574;BME280;11965;53.640;10.050;2023-02-18T11:36:47;100669.91;;;6.76;100.00
23574;BME280;11965;53.640;10.050;2023-02-18T11:39:23;100658.22;;;6.58;100.00
23574;BME280;11965;53.640;10.050;2023-02-18T11:41:56;100661.16;;;6.64;100.00
23574;BME280;11965;53.640;10.050;2023-02-18T11:44:28;100663.69;;;6.74;100.00
23574;BME280;11965;53.640;10.050;2023-02-18T11:47:02;100667.47;;;6.81;100.00
23574;BME280;11965;53.640;10.050;2023-02-18T11:49:31;100648.69;;;7.01;100.00
23574;BME280;11965;53.640;10.050;2023-02-18T11:52:13;100649.03;;;6.90;100.00
23574;BME280;11965;53.640;10.050;2023-02-18T11:54:58;100666.75;;;6.96;100.00
23574;BME280;11965;53.640;10.050;2023-02-18T11:57:27;100677.78;;;6.96;100.00
23574;BME280;11965;53.640;10.050;2023-02-18T11:59:54;100681.56;;;7.03;100.00
23574;BME280;11965;53.640;10.050;2023-02-18T12:02:30;100684.16;;;7.04;100.00
23574;BME280;11965;53.640;10.050;2023-02-18T12:05:03;100683.31;;;7.04;100.00
23574;BME280;11965;53.640;10.050;2023-02-18T12:07:40;100693.09;;;7.06;100.00
23574;BME280;11965;53.640;10.050;2023-02-18T12:10:17;100684.78;;;7.23;100.00
23574;BME280;11965;53.640;10.050;2023-02-18T12:12:49;100681.09;;;7.39;100.00
23574;BME280;11965;53.640;10.050;2023-02-18T12:15:25;100680.47;;;7.68;100.00
23574;BME280;11965;53.640;10.050;2023-02-18T12:18:11;100681.59;;;7.82;100.00
23574;BME280;11965;53.640;10.050;2023-02-18T12:21:04;100687.03;;;7.98;100.00
23574;BME280;11965;53.640;10.050;2023-02-18T12:23:44;100681.41;;;8.14;100.00
23574;BME280;11965;53.640;10.050;2023-02-18T12:26:22;100689.75;;;8.29;100.00
23574;BME280;11965;53.640;10.050;2023-02-18T12:29:08;100666.22;;;8.42;100.00
23574;BME280;11965;53.640;10.050;2023-02-18T12:32:03;100684.63;;;8.49;100.00
23574;BME280;11965;53.640;10.050;2023-02-18T12:34:45;100685.78;;;8.55;100.00
23574;BME280;11965;53.640;10.050;2023-02-18T12:37:35;100685.78;;;8.55;100.00
23574;BME280;11965;53.640;10.050;2023-02-18T12:40:37;100693.34;;;8.61;100.00
23574;BME280;11965;53.640;10.050;2023-02-18T12:43:18;100705.44;;;8.60;100.00
23574;BME280;11965;53.640;10.050;2023-02-18T12:46:12;100706.41;;;8.67;100.00
23574;BME280;11965;53.640;10.050;2023-02-18T12:48:59;100690.19;;;8.64;100.00
23574;BME280;11965;53.640;10.050;2023-02-18T12:51:52;100709.28;;;8.74;100.00
23574;BME280;11965;53.640;10.050;2023-02-18T12:54:37;100714.03;;;8.65;100.00
23574;BME280;11965;53.640;10.050;2023-02-18T12:57:35;100678.16;;;8.57;100.00
23574;BME280;11965;53.640;10.050;2023-02-18T13:00:30;100725.50;;;8.77;100.00
23574;BME280;11965;53.640;10.050;2023-02-18T13:06:16;100717.97;;;8.85;100.00
23574;BME280;11965;53.640;10.050;2023-02-18T13:08:58;100723.47;;;8.71;100.00